Aérodrome :
LOGIN :

S'inscrire | Disclaimer

   EN    FR    IT 

 










Légende :    VFR   VFR Marginal   IFR   IFR Intensif   IFR Très Intensif
Visi : 
Plafond : 
>= 8 km
>= 3000ft
5 à 8 km
1000 à 3000 ft
1500m à 5 km
500 à 1000 ft
800 à 1500m
200 à 500 ft
< 800m
< 200 ft
Symboles :   Orages  Brouillard  Fortes neiges  Fortes précipitations  Vent > 20 kt
SIGMETs :   Divers  Orages  Givrage  Turbulence  Onde Orograph.  Cendres Volcan.






- Altitude de l'aérodrome : 336 ft
- Code IATA : GCI


EGJB - Guernsey

DERNIER METAR :
  • 110720Z 25016KT 9999 VCSH FEW018CB SCT024 08/03 Q1009

METARs EXPIRÉS :
  • 110650Z 25012KT 9999 VCSH FEW018CB SCT024 08/04 Q1010
  • 110620Z 28010KT 9999 VCSH FEW022 08/04 Q1010
  • 110550Z 27013KT 9999 VCSH SCT026 08/03 Q1010
  • 110520Z 26013KT 9999 -SHRA SCT022 08/04 Q1010
  • 110450Z 27012KT 9999 VCSH BKN020 08/05 Q1010

TAF TAF EGJB
Valide du 11 à 06h jusqu'au 11 à 15h UTC


110458Z 1106/1115 26013KT 9999 FEW014 SCT028
PROB40
TEMPO 1106/1110 7000 SHRA
BECMG 1107/1109 22015G25KT
TEMPO 1110/1115 3000 +SHRAGS BKN009CB
BECMG 1111/1113 28018G30KT
ATIS : +44 1481 238 957



MET'MAP, la Météo Aéronautique d'un coup d'oeil ! - Copyright ORBIFLY Décembre 2007 - Disclaimer

ORBIFLY MET'MAP TEAM :

Programmation & Développement : Alexandra Zaïnal
Sur une idée originale de : Baudouin d'Aumeries
Assistance à la programmation : Marc-Olivier Méhu
Soutien technique & logistique : Manuel Goepfert

Contact : metmap@orbifly.com




SOURCES & CREDITS :

   NOAA